createdAt,value
2018-01-05T00:00:58.906Z,986.01
2018-01-05T00:01:59.329Z,985.96
2018-01-05T00:02:59.752Z,985.97
2018-01-05T00:04:00.186Z,986.07
2018-01-05T00:05:00.602Z,986.04
2018-01-05T00:06:01.023Z,986.08
2018-01-05T00:07:01.448Z,986.10
2018-01-05T00:08:01.875Z,986.06
2018-01-05T00:09:02.301Z,986.12
2018-01-05T00:10:02.723Z,986.10
2018-01-05T00:11:03.149Z,986.09
2018-01-05T00:12:03.571Z,986.17
2018-01-05T00:13:04.054Z,986.14
2018-01-05T00:14:04.418Z,986.15
2018-01-05T00:15:04.849Z,986.24
2018-01-05T00:16:05.265Z,986.19
2018-01-05T00:17:05.694Z,986.14
2018-01-05T00:18:06.114Z,986.15
2018-01-05T00:19:06.538Z,986.20
2018-01-05T00:20:06.964Z,986.15
2018-01-05T00:21:07.384Z,986.24
2018-01-05T00:22:07.811Z,986.24
2018-01-05T00:23:08.236Z,986.18
2018-01-05T00:24:08.658Z,986.24
2018-01-05T00:25:09.081Z,986.25
2018-01-05T00:26:09.505Z,986.26
2018-01-05T00:27:09.930Z,986.26
2018-01-05T00:28:10.356Z,986.22
2018-01-05T00:29:10.776Z,986.26
2018-01-05T00:30:11.233Z,986.26
2018-01-05T00:31:11.633Z,986.24
2018-01-05T00:32:12.051Z,986.25
2018-01-05T00:33:12.481Z,986.28
2018-01-05T00:34:12.895Z,986.35
2018-01-05T00:35:13.325Z,986.34
2018-01-05T00:36:13.750Z,986.34
2018-01-05T00:37:14.174Z,986.28
2018-01-05T00:38:14.598Z,986.35
2018-01-05T00:39:15.021Z,986.36
2018-01-05T00:40:15.443Z,986.37
2018-01-05T00:41:15.873Z,986.35
2018-01-05T00:42:16.289Z,986.37
2018-01-05T00:43:16.728Z,986.36
2018-01-05T00:44:17.141Z,986.41
2018-01-05T00:45:17.626Z,986.41
2018-01-05T00:46:17.997Z,986.38
2018-01-05T00:47:18.414Z,986.47
2018-01-05T00:48:18.843Z,986.47
2018-01-05T00:49:19.258Z,986.51
2018-01-05T00:50:19.688Z,986.56
2018-01-05T00:51:20.108Z,986.52
2018-01-05T00:52:20.533Z,986.55
2018-01-05T00:53:20.954Z,986.55
2018-01-05T00:54:21.376Z,986.58
2018-01-05T00:55:21.806Z,986.58
2018-01-05T00:56:22.225Z,986.59
2018-01-05T00:57:22.650Z,986.55
2018-01-05T00:58:23.073Z,986.63
2018-01-05T00:59:23.500Z,986.65
2018-01-05T01:00:23.924Z,986.65
2018-01-05T01:01:24.352Z,986.71
2018-01-05T01:02:24.772Z,986.63
2018-01-05T01:03:25.197Z,986.66
2018-01-05T01:04:25.628Z,986.74
2018-01-05T01:05:26.042Z,986.73
2018-01-05T01:06:26.466Z,986.79
2018-01-05T01:07:26.893Z,986.76
2018-01-05T01:08:27.321Z,986.80
2018-01-05T01:09:27.745Z,986.80
2018-01-05T01:10:28.162Z,986.85
2018-01-05T01:11:28.591Z,986.80
2018-01-05T01:12:29.016Z,986.87
2018-01-05T01:13:29.434Z,986.89
2018-01-05T01:14:29.864Z,986.85
2018-01-05T01:15:30.287Z,986.88
2018-01-05T01:16:30.707Z,986.93
2018-01-05T01:17:31.136Z,986.92
2018-01-05T01:18:31.559Z,986.94
2018-01-05T01:19:31.984Z,986.96
2018-01-05T01:20:32.404Z,987.01
2018-01-05T01:21:32.847Z,987.00
2018-01-05T01:22:33.258Z,986.98
2018-01-05T01:23:33.680Z,986.98
2018-01-05T01:24:34.104Z,987.04
2018-01-05T01:25:34.532Z,987.04
2018-01-05T01:26:34.952Z,987.07
2018-01-05T01:29:08.505Z,987.04
2018-01-05T01:30:08.920Z,987.05
2018-01-05T01:32:03.492Z,987.08
2018-01-05T01:33:03.924Z,987.21
2018-01-05T01:34:58.511Z,987.16
2018-01-05T01:35:58.932Z,987.15
2018-01-05T01:37:53.534Z,987.16
2018-01-05T01:38:53.933Z,987.22
2018-01-05T01:40:48.519Z,987.19
2018-01-05T01:41:48.954Z,987.17
2018-01-05T01:43:43.555Z,987.24
2018-01-05T01:44:43.969Z,987.20
2018-01-05T01:46:38.554Z,987.22
2018-01-05T01:47:38.986Z,987.31
2018-01-05T01:49:33.588Z,987.28
2018-01-05T01:50:34.003Z,987.31
2018-01-05T01:52:29.654Z,987.31
2018-01-05T01:53:30.088Z,987.27
2018-01-05T01:55:24.693Z,987.30
2018-01-05T01:56:25.102Z,987.39
2018-01-05T01:58:20.674Z,987.39
2018-01-05T01:59:21.103Z,987.34
2018-01-05T02:01:15.700Z,987.36
2018-01-05T02:02:16.117Z,987.42
2018-01-05T02:04:10.744Z,987.44
2018-01-05T02:05:11.128Z,987.52
2018-01-05T02:07:06.712Z,987.42
2018-01-05T02:08:07.131Z,987.48
2018-01-05T02:10:01.741Z,987.45
2018-01-05T02:11:02.148Z,987.40
2018-01-05T02:12:57.774Z,987.46
2018-01-05T02:19:46.102Z,987.61
2018-01-05T02:20:46.484Z,987.60
2018-01-05T02:22:41.079Z,987.66
2018-01-05T02:23:41.502Z,987.71
2018-01-05T02:25:36.110Z,987.69
2018-01-05T02:26:36.516Z,987.81
2018-01-05T02:28:31.097Z,987.63
2018-01-05T02:29:31.532Z,987.63
2018-01-05T02:31:26.132Z,987.64
2018-01-05T02:32:26.557Z,987.67
2018-01-05T02:34:22.138Z,987.67
2018-01-05T02:35:22.560Z,987.70
2018-01-05T02:37:17.149Z,987.71
2018-01-05T02:38:17.563Z,987.68
2018-01-05T02:40:13.151Z,987.61
2018-01-05T02:41:13.567Z,987.71
2018-01-05T02:43:08.169Z,987.65
2018-01-05T02:44:08.583Z,987.62
2018-01-05T02:46:03.184Z,987.73
2018-01-05T02:47:03.600Z,987.73
2018-01-05T02:49:01.178Z,987.75
2018-01-05T02:50:01.607Z,987.78
2018-01-05T02:51:02.027Z,987.77
2018-01-05T02:52:02.456Z,987.77
2018-01-05T02:53:02.881Z,987.76
2018-01-05T02:54:03.304Z,987.81
2018-01-05T02:55:03.736Z,987.83
2018-01-05T02:56:04.158Z,987.79
2018-01-05T02:57:04.573Z,987.85
2018-01-05T02:58:05.007Z,987.86
2018-01-05T02:59:05.423Z,987.89
2018-01-05T03:00:05.854Z,987.91
2018-01-05T03:01:06.272Z,987.91
2018-01-05T03:02:06.704Z,987.89
2018-01-05T03:03:07.124Z,987.92
2018-01-05T03:04:07.545Z,987.96
2018-01-05T03:05:07.969Z,988.00
2018-01-05T03:06:08.389Z,987.96
2018-01-05T03:07:08.818Z,988.10
2018-01-05T03:08:09.235Z,988.18
2018-01-05T03:09:09.667Z,988.11
2018-01-05T03:10:10.093Z,988.12
2018-01-05T03:11:10.521Z,988.20
2018-01-05T03:12:10.939Z,988.18
2018-01-05T03:13:11.368Z,988.20
2018-01-05T03:14:11.785Z,988.23
2018-01-05T03:15:12.208Z,988.19
2018-01-05T03:16:12.639Z,988.30
2018-01-05T03:17:13.060Z,988.09
2018-01-05T03:18:13.485Z,988.30
2018-01-05T03:19:13.905Z,988.35
2018-01-05T03:20:14.340Z,988.39
2018-01-05T03:21:14.753Z,988.42
2018-01-05T03:22:15.188Z,988.36
2018-01-05T03:23:15.605Z,988.42
2018-01-05T03:24:16.037Z,988.47
2018-01-05T03:25:16.457Z,988.47
2018-01-05T03:26:16.880Z,988.40
2018-01-05T03:27:17.302Z,988.38
2018-01-05T03:28:17.724Z,988.41
2018-01-05T03:29:18.158Z,988.53
2018-01-05T03:30:18.573Z,988.47
2018-01-05T03:31:19.003Z,988.45
2018-01-05T03:32:19.423Z,988.50
2018-01-05T03:33:19.857Z,988.48
2018-01-05T03:34:20.269Z,988.50
2018-01-05T03:35:20.694Z,988.50
2018-01-05T03:36:21.120Z,988.48
2018-01-05T03:37:21.540Z,988.65
2018-01-05T03:38:21.976Z,988.64
2018-01-05T03:39:22.399Z,988.70
2018-01-05T03:40:22.818Z,988.78
2018-01-05T03:41:23.239Z,988.77
2018-01-05T03:42:23.662Z,988.82
2018-01-05T03:43:24.102Z,988.84
2018-01-05T03:44:24.511Z,988.81
2018-01-05T03:45:24.931Z,988.82
2018-01-05T03:46:25.364Z,988.83
2018-01-05T03:47:25.780Z,988.82
2018-01-05T03:48:26.203Z,989.00
2018-01-05T03:49:26.635Z,988.94
2018-01-05T03:50:27.056Z,988.95
2018-01-05T03:51:27.483Z,988.92
2018-01-05T03:52:27.914Z,989.01
2018-01-05T03:53:28.334Z,989.02
2018-01-05T03:54:28.754Z,988.99
2018-01-05T03:55:29.172Z,988.98
2018-01-05T03:56:29.597Z,989.01
2018-01-05T03:57:30.037Z,988.98
2018-01-05T03:58:30.450Z,989.02
2018-01-05T03:59:30.867Z,989.02
2018-01-05T04:00:31.303Z,989.02
2018-01-05T04:01:31.715Z,989.10
2018-01-05T04:02:32.137Z,989.13
2018-01-05T04:03:32.566Z,989.17
2018-01-05T04:04:32.992Z,989.19
2018-01-05T04:05:33.424Z,989.22
2018-01-05T04:06:33.842Z,989.12
2018-01-05T04:07:34.260Z,989.31
2018-01-05T04:08:34.686Z,989.26
2018-01-05T04:09:35.107Z,989.24
2018-01-05T04:10:35.539Z,989.20
2018-01-05T04:11:35.957Z,989.26
2018-01-05T04:12:36.380Z,989.33
2018-01-05T04:13:36.803Z,989.34
2018-01-05T04:14:37.235Z,989.29
2018-01-05T04:15:37.652Z,989.32
2018-01-05T04:16:38.072Z,989.31
2018-01-05T04:17:38.505Z,989.31
2018-01-05T04:18:38.941Z,989.29
2018-01-05T04:19:39.355Z,989.35
2018-01-05T04:20:39.773Z,989.43
2018-01-05T04:21:40.194Z,989.43
2018-01-05T04:22:40.622Z,989.44
2018-01-05T04:23:41.040Z,989.31
2018-01-05T04:24:41.471Z,989.36
2018-01-05T04:25:41.888Z,989.30
2018-01-05T04:26:42.311Z,989.29
2018-01-05T04:27:42.733Z,989.28
2018-01-05T04:28:43.161Z,989.20
2018-01-05T04:29:43.583Z,989.35
2018-01-05T04:30:44.006Z,989.22
2018-01-05T04:31:44.432Z,989.30
2018-01-05T04:32:44.868Z,989.30
2018-01-05T04:33:45.293Z,989.23
2018-01-05T04:34:45.705Z,989.20
2018-01-05T04:35:46.128Z,989.21
2018-01-05T04:36:46.557Z,989.15
2018-01-05T04:37:46.980Z,989.25
2018-01-05T04:38:47.396Z,989.23
2018-01-05T04:39:47.821Z,989.21
2018-01-05T04:40:48.244Z,989.25
2018-01-05T04:41:48.672Z,989.21
2018-01-05T04:42:49.094Z,989.36
2018-01-05T04:43:49.519Z,989.24
2018-01-05T04:44:49.939Z,989.20
2018-01-05T04:45:50.366Z,989.18
2018-01-05T04:46:50.800Z,989.07
2018-01-05T04:47:51.217Z,989.13
2018-01-05T04:48:51.639Z,989.14
2018-01-05T04:49:52.062Z,989.17
2018-01-05T04:50:52.487Z,989.20
2018-01-05T04:51:52.910Z,989.23
2018-01-05T04:52:53.337Z,989.14
2018-01-05T04:53:53.756Z,989.16
2018-01-05T04:54:54.178Z,989.18
2018-01-05T04:55:54.605Z,989.16
2018-01-05T04:56:55.031Z,989.20
2018-01-05T04:57:55.454Z,989.21
2018-01-05T04:58:55.881Z,989.23
2018-01-05T04:59:56.307Z,989.24
2018-01-05T05:00:56.740Z,989.18
2018-01-05T05:01:57.151Z,989.21
2018-01-05T05:02:57.575Z,989.24
2018-01-05T05:03:57.998Z,989.28
2018-01-05T05:04:58.422Z,989.30
2018-01-05T05:05:58.852Z,989.22
2018-01-05T05:06:59.270Z,989.28
2018-01-05T05:07:59.694Z,989.27
2018-01-05T05:09:00.116Z,989.34
2018-01-05T05:10:00.544Z,989.34
2018-01-05T05:11:00.962Z,989.40
2018-01-05T05:12:01.387Z,989.35
2018-01-05T05:13:01.809Z,989.35
2018-01-05T05:14:02.236Z,989.38
2018-01-05T05:15:02.668Z,989.41
2018-01-05T05:16:03.093Z,989.43
2018-01-05T05:17:03.517Z,989.45
2018-01-05T05:18:03.938Z,989.50
2018-01-05T05:19:04.356Z,989.48
2018-01-05T05:20:04.789Z,989.48
2018-01-05T05:21:05.216Z,989.45
2018-01-05T05:22:05.631Z,989.49
2018-01-05T05:23:06.051Z,989.51
2018-01-05T05:24:06.478Z,989.44
2018-01-05T05:25:06.905Z,989.50
2018-01-05T05:26:07.373Z,989.53
2018-01-05T05:27:07.750Z,989.58
2018-01-05T05:28:08.170Z,989.60
2018-01-05T05:29:08.600Z,989.57
2018-01-05T05:30:09.068Z,989.58
2018-01-05T05:31:09.451Z,989.61
2018-01-05T05:32:09.868Z,989.63
2018-01-05T05:33:10.291Z,989.64
2018-01-05T05:34:10.721Z,989.65
2018-01-05T05:35:11.144Z,989.71
2018-01-05T05:36:11.565Z,989.71
2018-01-05T05:37:11.986Z,989.60
2018-01-05T05:38:12.411Z,989.68
2018-01-05T05:39:12.842Z,989.69
2018-01-05T05:40:13.261Z,989.67
2018-01-05T05:41:13.686Z,989.68
2018-01-05T05:42:14.115Z,989.71
2018-01-05T05:44:48.652Z,989.77
2018-01-05T05:45:49.161Z,989.79
2018-01-05T05:47:43.651Z,989.84
2018-01-05T05:48:44.068Z,989.78
2018-01-05T05:50:38.647Z,989.83
2018-01-05T05:51:39.071Z,989.88
2018-01-05T05:53:33.665Z,989.82
2018-01-05T05:54:34.076Z,989.92
2018-01-05T05:56:28.663Z,989.93
2018-01-05T05:57:29.093Z,989.95
2018-01-05T05:59:23.684Z,990.01
2018-01-05T06:00:24.090Z,990.00
2018-01-05T06:02:18.669Z,990.02
2018-01-05T06:03:19.096Z,990.07
2018-01-05T06:04:19.528Z,990.10
2018-01-05T06:05:19.952Z,990.08
2018-01-05T06:06:20.416Z,990.03
2018-01-05T06:07:20.800Z,990.05
2018-01-05T06:08:21.218Z,990.05
2018-01-05T06:09:21.646Z,990.08
2018-01-05T06:10:22.076Z,990.10
2018-01-05T06:11:22.492Z,990.07
2018-01-05T06:12:22.917Z,990.07
2018-01-05T06:13:23.341Z,990.10
2018-01-05T06:14:23.770Z,990.11
2018-01-05T06:15:24.190Z,990.05
2018-01-05T06:16:24.609Z,990.16
2018-01-05T06:17:25.038Z,990.23
2018-01-05T06:18:25.461Z,990.21
2018-01-05T06:19:25.888Z,990.24
2018-01-05T06:20:26.295Z,990.32
2018-01-05T06:22:20.909Z,990.28
2018-01-05T06:23:21.324Z,990.33
2018-01-05T06:25:15.919Z,990.33
2018-01-05T06:26:16.335Z,990.34
2018-01-05T06:27:16.755Z,990.33
2018-01-05T06:28:17.183Z,990.32
2018-01-05T06:29:17.612Z,990.26
2018-01-05T06:30:18.032Z,990.28
2018-01-05T06:31:18.459Z,990.27
2018-01-05T06:32:18.882Z,990.24
2018-01-05T06:33:19.299Z,990.27
2018-01-05T06:34:19.726Z,990.27
2018-01-05T06:35:20.149Z,990.26
2018-01-05T06:36:20.574Z,990.25
2018-01-05T06:37:20.997Z,990.29
2018-01-05T06:38:21.428Z,990.29
2018-01-05T06:39:21.848Z,990.28
2018-01-05T06:40:22.267Z,990.25
2018-01-05T06:41:22.693Z,990.26
2018-01-05T06:42:23.113Z,990.25
2018-01-05T06:43:23.575Z,990.30
2018-01-05T06:44:24.027Z,990.34
2018-01-05T06:45:24.387Z,990.32
2018-01-05T06:46:24.814Z,990.33
2018-01-05T06:47:25.236Z,990.35
2018-01-05T06:48:25.661Z,990.34
2018-01-05T06:49:26.085Z,990.40
2018-01-05T06:50:26.509Z,990.40
2018-01-05T06:51:26.936Z,990.43
2018-01-05T06:52:27.356Z,990.44
2018-01-05T06:53:27.782Z,990.53
2018-01-05T06:54:28.209Z,990.49
2018-01-05T06:55:28.631Z,990.53
2018-01-05T06:56:29.067Z,990.53
2018-01-05T06:57:29.486Z,990.62
2018-01-05T06:58:29.897Z,990.61
2018-01-05T06:59:30.322Z,990.60
2018-01-05T07:00:30.765Z,990.59
2018-01-05T07:01:31.173Z,990.63
2018-01-05T07:02:31.596Z,990.61
2018-01-05T07:03:32.022Z,990.59
2018-01-05T07:04:32.448Z,990.63
2018-01-05T07:05:32.869Z,990.64
2018-01-05T07:06:33.293Z,990.65
2018-01-05T07:07:33.715Z,990.64
2018-01-05T07:08:34.138Z,990.63
2018-01-05T07:09:34.563Z,990.70
2018-01-05T07:10:34.988Z,990.70
2018-01-05T07:11:35.412Z,990.69
2018-01-05T07:12:35.867Z,990.73
2018-01-05T07:13:36.272Z,990.67
2018-01-05T07:14:36.683Z,990.62
2018-01-05T07:15:37.118Z,990.62
2018-01-05T07:16:37.527Z,990.61
2018-01-05T07:17:37.953Z,990.67
2018-01-05T07:18:38.379Z,990.69
2018-01-05T07:19:38.805Z,990.68
2018-01-05T07:20:39.233Z,990.72
2018-01-05T07:21:39.648Z,990.75
2018-01-05T07:22:40.077Z,990.73
2018-01-05T07:23:40.499Z,990.73
2018-01-05T07:24:40.920Z,990.80
2018-01-05T07:25:41.351Z,990.66
2018-01-05T07:26:41.819Z,990.72
2018-01-05T07:27:42.192Z,990.71
2018-01-05T07:28:42.621Z,990.70
2018-01-05T07:29:43.037Z,990.67
2018-01-05T07:30:43.468Z,990.64
2018-01-05T07:31:43.893Z,990.67
2018-01-05T07:32:44.334Z,990.71
2018-01-05T07:33:44.749Z,990.67
2018-01-05T07:34:45.185Z,990.70
2018-01-05T07:35:45.583Z,990.72
2018-01-05T07:36:46.010Z,990.76
2018-01-05T07:37:46.433Z,990.72
2018-01-05T07:38:46.856Z,990.78
2018-01-05T07:39:47.282Z,990.67
2018-01-05T07:40:47.707Z,990.71
2018-01-05T07:41:48.132Z,990.74
2018-01-05T07:42:48.548Z,990.73
2018-01-05T07:43:48.997Z,990.75
2018-01-05T07:44:49.398Z,990.71
2018-01-05T07:45:49.824Z,990.75
2018-01-05T07:46:50.248Z,990.80
2018-01-05T07:47:50.670Z,990.73
2018-01-05T07:48:51.093Z,990.80
2018-01-05T07:49:51.517Z,990.79
2018-01-05T07:50:52.022Z,990.75
2018-01-05T07:53:25.510Z,990.77
2018-01-05T07:54:25.909Z,990.83
2018-01-05T07:56:20.510Z,990.78
2018-01-05T07:57:20.924Z,990.88
2018-01-05T07:59:15.500Z,990.86
2018-01-05T08:00:15.933Z,990.86
2018-01-05T08:02:11.526Z,990.84
2018-01-05T08:03:11.924Z,990.80
2018-01-05T08:05:07.484Z,990.88
2018-01-05T08:06:07.953Z,990.83
2018-01-05T08:08:03.493Z,990.86
2018-01-05T08:09:03.902Z,990.84
2018-01-05T08:10:58.506Z,990.90
2018-01-05T08:11:58.917Z,990.88
2018-01-05T08:13:53.537Z,990.92
2018-01-05T08:14:53.928Z,990.88
2018-01-05T08:16:48.522Z,990.90
2018-01-05T08:17:48.938Z,990.87
2018-01-05T08:19:43.521Z,990.83
2018-01-05T08:20:43.950Z,990.85
2018-01-05T08:22:39.563Z,990.93
2018-01-05T08:23:39.942Z,990.86
2018-01-05T08:25:34.537Z,990.87
2018-01-05T08:26:34.951Z,990.94
2018-01-05T08:28:29.553Z,990.94
2018-01-05T08:29:29.963Z,990.91
2018-01-05T08:31:24.572Z,990.91
2018-01-05T08:32:24.963Z,990.86
2018-01-05T08:34:19.554Z,990.77
2018-01-05T08:35:19.964Z,990.80
2018-01-05T08:37:14.557Z,990.83
2018-01-05T08:38:14.969Z,990.84
2018-01-05T08:40:10.537Z,990.85
2018-01-05T08:41:10.968Z,990.86
2018-01-05T08:43:05.570Z,990.82
2018-01-05T08:44:05.977Z,990.85
2018-01-05T08:46:00.563Z,990.87
2018-01-05T08:47:00.996Z,990.84
2018-01-05T08:48:55.619Z,990.79
2018-01-05T08:49:56.005Z,990.86
2018-01-05T08:51:50.585Z,990.81
2018-01-05T08:52:51.022Z,990.80
2018-01-05T08:54:46.647Z,990.76
2018-01-05T08:55:47.012Z,990.80
2018-01-05T08:57:41.589Z,990.85
2018-01-05T08:58:42.014Z,990.79
2018-01-05T09:00:36.611Z,990.77
2018-01-05T09:01:37.019Z,990.76
2018-01-05T09:03:32.605Z,990.79
2018-01-05T09:04:33.015Z,990.80
2018-01-05T09:06:27.604Z,990.80
2018-01-05T09:07:28.034Z,990.89
2018-01-05T09:09:22.631Z,990.84
2018-01-05T09:10:23.057Z,990.84
2018-01-05T09:12:17.646Z,990.88
2018-01-05T09:13:18.075Z,990.88
2018-01-05T09:15:12.685Z,990.77
2018-01-05T09:16:13.089Z,990.81
2018-01-05T09:18:07.671Z,990.78
2018-01-05T09:19:08.103Z,990.80
2018-01-05T09:21:03.683Z,990.86
2018-01-05T09:22:04.096Z,990.79
2018-01-05T09:23:04.550Z,990.81
2018-01-05T09:24:04.945Z,990.80
2018-01-05T09:25:05.372Z,990.78
2018-01-05T09:26:05.796Z,990.79
2018-01-05T09:27:06.218Z,990.81
2018-01-05T09:28:06.646Z,990.86
2018-01-05T09:29:07.069Z,990.85
2018-01-05T09:30:07.524Z,990.86
2018-01-05T09:31:07.930Z,990.85
2018-01-05T09:32:08.346Z,990.85
2018-01-05T09:33:08.771Z,990.90
2018-01-05T09:34:09.196Z,990.96
2018-01-05T09:35:09.618Z,990.87
2018-01-05T09:36:10.049Z,990.87
2018-01-05T09:37:10.503Z,990.90
2018-01-05T09:38:10.901Z,990.88
2018-01-05T09:39:11.326Z,990.85
2018-01-05T09:40:11.753Z,990.87
2018-01-05T09:41:12.170Z,990.81
2018-01-05T09:42:12.597Z,990.85
2018-01-05T09:43:13.085Z,990.83
2018-01-05T09:44:13.462Z,990.92
2018-01-05T09:45:13.874Z,990.84
2018-01-05T09:46:14.297Z,990.84
2018-01-05T09:47:14.732Z,990.80
2018-01-05T09:48:15.150Z,990.79
2018-01-05T09:49:15.575Z,990.81
2018-01-05T09:50:15.999Z,990.70
2018-01-05T09:51:16.483Z,990.66
2018-01-05T09:52:16.852Z,990.73
2018-01-05T09:53:17.292Z,990.76
2018-01-05T09:54:17.716Z,990.78
2018-01-05T09:55:18.133Z,990.81
2018-01-05T09:56:18.549Z,990.87
2018-01-05T09:57:18.975Z,990.85
2018-01-05T09:58:19.402Z,990.83
2018-01-05T09:59:19.826Z,990.83
2018-01-05T10:00:20.249Z,990.84
2018-01-05T10:01:20.672Z,990.88
2018-01-05T10:02:21.104Z,990.79
2018-01-05T10:03:21.524Z,990.76
2018-01-05T10:04:21.993Z,990.82
2018-01-05T10:05:22.377Z,990.85
2018-01-05T10:06:22.808Z,990.73
2018-01-05T10:07:23.231Z,990.80
2018-01-05T10:08:23.651Z,990.83
2018-01-05T10:09:24.081Z,990.78
2018-01-05T10:10:24.503Z,990.80
2018-01-05T10:11:24.925Z,990.72
2018-01-05T10:12:25.357Z,990.77
2018-01-05T10:13:25.781Z,990.81
2018-01-05T10:14:26.205Z,990.79
2018-01-05T10:15:26.629Z,990.79
2018-01-05T10:16:27.087Z,990.78
2018-01-05T10:17:27.485Z,990.73
2018-01-05T10:18:27.912Z,990.74
2018-01-05T10:19:28.334Z,990.78
2018-01-05T10:20:28.756Z,990.79
2018-01-05T10:21:29.191Z,990.78
2018-01-05T10:22:29.624Z,990.84
2018-01-05T10:23:30.042Z,990.77
2018-01-05T10:24:30.462Z,990.84
2018-01-05T10:25:30.888Z,990.78
2018-01-05T10:26:31.312Z,990.76
2018-01-05T10:27:31.737Z,990.71
2018-01-05T10:28:32.170Z,990.78
2018-01-05T10:29:32.594Z,990.76
2018-01-05T10:30:33.018Z,990.82
2018-01-05T10:31:33.438Z,990.85
2018-01-05T10:32:33.876Z,990.77
2018-01-05T10:33:34.295Z,990.72
2018-01-05T10:34:34.717Z,990.75
2018-01-05T10:35:35.144Z,990.80
2018-01-05T10:36:35.567Z,990.77
2018-01-05T10:37:35.994Z,990.81
2018-01-05T10:38:36.419Z,990.82
2018-01-05T10:39:36.849Z,990.77
2018-01-05T10:40:37.274Z,990.81
2018-01-05T10:41:37.696Z,990.85
2018-01-05T10:42:38.126Z,990.84
2018-01-05T10:43:38.556Z,990.81
2018-01-05T10:44:38.973Z,990.81
2018-01-05T10:45:39.399Z,990.83
2018-01-05T10:46:39.831Z,990.84
2018-01-05T10:47:40.254Z,990.92
2018-01-05T10:48:40.675Z,990.87
2018-01-05T10:49:41.098Z,990.84
2018-01-05T10:50:41.530Z,990.81
2018-01-05T10:51:41.951Z,990.80
2018-01-05T10:52:42.378Z,990.85
2018-01-05T10:53:42.801Z,990.90
2018-01-05T10:54:43.234Z,990.83
2018-01-05T10:55:43.658Z,990.89
2018-01-05T10:56:44.079Z,990.97
2018-01-05T10:57:44.505Z,990.83
2018-01-05T10:58:44.931Z,990.83
2018-01-05T10:59:45.371Z,990.87
2018-01-05T11:00:45.780Z,990.90
2018-01-05T11:01:46.206Z,990.87
2018-01-05T11:02:46.637Z,990.93
2018-01-05T11:03:47.063Z,990.89
2018-01-05T11:04:47.486Z,990.95
2018-01-05T11:05:47.910Z,990.98
2018-01-05T11:06:48.337Z,990.96
2018-01-05T11:07:48.760Z,991.01
2018-01-05T11:08:49.185Z,991.00
2018-01-05T11:09:49.611Z,991.01
2018-01-05T11:10:50.038Z,990.98
2018-01-05T11:11:50.462Z,990.96
2018-01-05T11:12:50.901Z,990.93
2018-01-05T11:13:51.322Z,990.89
2018-01-05T11:14:51.744Z,990.93
2018-01-05T11:15:52.166Z,990.94
2018-01-05T11:16:52.593Z,991.01
2018-01-05T11:17:53.021Z,991.06
2018-01-05T11:18:53.446Z,991.06
2018-01-05T11:19:53.870Z,991.11
2018-01-05T11:20:54.353Z,991.09
2018-01-05T11:21:54.721Z,991.03
2018-01-05T11:22:55.158Z,991.05
2018-01-05T11:23:55.572Z,991.00
2018-01-05T11:24:56.000Z,991.05
2018-01-05T11:25:56.435Z,991.07
2018-01-05T11:26:56.851Z,991.12
2018-01-05T11:27:57.284Z,991.09
2018-01-05T11:28:57.705Z,991.13
2018-01-05T11:29:58.134Z,991.02
2018-01-05T11:30:58.553Z,991.09
2018-01-05T11:31:58.978Z,991.07
2018-01-05T11:32:59.422Z,991.03
2018-01-05T11:33:59.833Z,990.99
2018-01-05T11:35:00.255Z,991.02
2018-01-05T11:36:00.682Z,991.01
2018-01-05T11:37:01.110Z,991.02
2018-01-05T11:38:01.538Z,990.99
2018-01-05T11:39:01.957Z,991.09
2018-01-05T11:40:02.386Z,991.16
2018-01-05T11:41:02.812Z,991.12
2018-01-05T11:42:03.291Z,991.17
2018-01-05T11:43:03.661Z,991.15
2018-01-05T11:44:04.092Z,991.15
2018-01-05T11:45:04.529Z,991.06
2018-01-05T11:46:04.939Z,991.15
2018-01-05T11:47:05.367Z,991.12
2018-01-05T11:48:05.786Z,991.14
2018-01-05T11:49:06.228Z,991.15
2018-01-05T11:50:06.641Z,991.14
2018-01-05T11:51:07.066Z,991.21
2018-01-05T11:52:07.494Z,991.30
2018-01-05T11:53:07.920Z,991.17
2018-01-05T11:54:08.348Z,991.25
2018-01-05T11:55:08.770Z,991.18
2018-01-05T11:56:09.204Z,991.16
2018-01-05T11:57:09.626Z,991.21
2018-01-05T11:58:10.051Z,991.26
2018-01-05T11:59:10.482Z,991.34
2018-01-05T12:00:10.900Z,991.36
2018-01-05T12:01:11.327Z,991.33
2018-01-05T12:02:11.752Z,991.38
2018-01-05T12:03:12.187Z,991.38
2018-01-05T12:04:12.603Z,991.45
2018-01-05T12:05:13.028Z,991.47
2018-01-05T12:06:13.484Z,991.52
2018-01-05T12:07:13.884Z,991.51
2018-01-05T12:08:14.314Z,991.56
2018-01-05T12:09:14.737Z,991.59
2018-01-05T12:10:15.169Z,991.61
2018-01-05T12:11:15.588Z,991.61
2018-01-05T12:12:16.025Z,991.58
2018-01-05T12:13:16.438Z,991.61
2018-01-05T12:14:16.862Z,991.62
2018-01-05T12:15:17.289Z,991.63
2018-01-05T12:16:17.715Z,991.62
2018-01-05T12:17:18.141Z,991.66
2018-01-05T12:18:18.573Z,991.65
2018-01-05T12:19:18.999Z,991.63
2018-01-05T12:20:19.420Z,991.76
2018-01-05T12:21:19.847Z,991.84
2018-01-05T12:22:20.271Z,991.86
2018-01-05T12:23:20.714Z,991.85
2018-01-05T12:24:21.120Z,991.97
2018-01-05T12:25:21.554Z,992.00
2018-01-05T12:26:21.972Z,992.09
2018-01-05T12:27:22.401Z,992.11
2018-01-05T12:28:22.823Z,992.09
2018-01-05T12:29:23.266Z,992.11
2018-01-05T12:30:23.682Z,992.11
2018-01-05T12:31:24.103Z,992.10
2018-01-05T12:32:24.527Z,992.03
2018-01-05T12:33:24.953Z,992.04
2018-01-05T12:34:25.378Z,992.18
2018-01-05T12:35:25.804Z,992.06
2018-01-05T12:36:26.227Z,992.15
2018-01-05T12:37:26.654Z,992.07
2018-01-05T12:38:27.093Z,992.14
2018-01-05T12:39:27.509Z,992.17
2018-01-05T12:40:27.931Z,992.20
2018-01-05T12:41:28.359Z,992.17
2018-01-05T12:42:28.781Z,992.17
2018-01-05T12:43:29.207Z,992.25
2018-01-05T12:44:29.637Z,992.28
2018-01-05T12:45:30.075Z,992.30
2018-01-05T12:46:30.489Z,992.38
2018-01-05T12:47:30.909Z,992.39
2018-01-05T12:50:05.457Z,992.34
2018-01-05T12:51:05.874Z,992.31
2018-01-05T12:53:00.450Z,992.42
2018-01-05T12:54:00.881Z,992.37
2018-01-05T12:55:56.509Z,992.42
2018-01-05T12:56:56.874Z,992.40
2018-01-05T12:58:51.480Z,992.47
2018-01-05T12:59:51.890Z,992.50
2018-01-05T13:01:46.472Z,992.42
2018-01-05T13:02:46.909Z,992.51
2018-01-05T13:04:42.541Z,992.56
2018-01-05T13:05:42.987Z,992.56
2018-01-05T13:07:37.572Z,992.59
2018-01-05T13:08:37.990Z,992.63
2018-01-05T13:10:32.643Z,992.70
2018-01-05T13:11:33.004Z,992.80
2018-01-05T13:13:27.581Z,992.79
2018-01-05T13:14:28.024Z,992.77
2018-01-05T13:16:23.656Z,992.83
2018-01-05T13:17:24.068Z,992.91
2018-01-05T13:19:18.685Z,992.94
2018-01-05T13:20:19.117Z,992.97
2018-01-05T13:22:13.723Z,993.03
2018-01-05T13:23:14.139Z,993.00
2018-01-05T13:25:09.737Z,992.99
2018-01-05T13:26:10.164Z,993.03
2018-01-05T13:28:04.754Z,992.99
2018-01-05T13:29:05.153Z,993.00
2018-01-05T13:30:59.762Z,992.99
2018-01-05T13:32:00.176Z,993.02
2018-01-05T13:33:55.790Z,993.06
2018-01-05T13:34:56.221Z,993.08
2018-01-05T13:36:52.652Z,993.05
2018-01-05T13:39:26.557Z,993.14
2018-01-05T13:40:26.992Z,993.17
2018-01-05T13:42:21.593Z,993.20
2018-01-05T13:43:22.005Z,993.25
2018-01-05T13:45:17.070Z,993.27
2018-01-05T13:46:17.501Z,993.36
2018-01-05T13:48:12.102Z,993.29
2018-01-05T13:49:12.520Z,993.19
2018-01-05T13:51:08.082Z,993.19
2018-01-05T13:52:08.512Z,993.32
2018-01-05T13:54:03.115Z,993.13
2018-01-05T13:55:03.532Z,993.26
2018-01-05T13:56:59.122Z,993.30
2018-01-05T13:57:59.539Z,993.34
2018-01-05T13:59:54.147Z,993.29
2018-01-05T14:00:54.562Z,993.28
2018-01-05T14:02:54.716Z,993.33
2018-01-05T14:03:55.131Z,993.34
2018-01-05T14:06:15.874Z,993.51
2018-01-05T14:08:49.439Z,993.51
2018-01-05T14:11:27.265Z,993.52